• Join FlightAware (Why Join?)
  • Login
  • US Flag 
01:07AM EDT


 

Airport Tracker/Info


-or-


 

Live Flight TrackerFlight Track Log ✈ JBU56 ✈ 11-Jun-2013 ✈ KJFK - KBTV

Flight Track Log - Related Links

Times and Time Zones

All times are in EDT time to prevent confusion due to time zone crossing. See the JBU56 flight status page for this flight to view local times or setup timezone preferences in your user account.

Time Position Orientation Groundspeed Altitude Reporting Facility
EDT Latitude Longitude Course Direction KTS MPH feet Rate Location/Type
09:36AM 40.6000 -73.8000 27° Northeast 160 184 2,300  Level New York TRACON
09:37AM 40.5500 -73.7833 166° South 238 274 4,300 2,280 Climbing New York TRACON
09:38AM 40.8892 -73.6304 21° North  Level FlightAware Approximate
09:38AM 40.5833 -73.6833 66° East 291 335 6,900  Level New York TRACON
09:39AM 40.9806 -73.5847 21° North  Level FlightAware Approximate
09:39AM 40.6333 -73.6000 52° Northeast 312 359 9,800  Level New York TRACON
09:40AM 41.0695 -73.5315 27° Northeast  Level FlightAware Approximate
09:40AM 40.7167 -73.5500 24° Northeast 339 390 11,500  Level New York TRACON
09:41AM 41.1567 -73.4733 27° Northeast  Level FlightAware Approximate
09:41AM 40.8000 -73.5000 24° Northeast 375 432 13,900  Level New York TRACON
09:43AM 41.0392 -73.4417 10° North 403 464 18,700 1,920 Climbing Boston Center
09:44AM 41.1561 -73.4106 11° North 408 470 20,100 1,140 Climbing Boston Center
09:45AM 41.2711 -73.3764 13° North 419 482 21,000 420 Climbing Boston Center
09:46AM 41.3903 -73.3394 13° North 424 488 21,000  Level Boston Center
09:47AM 41.5031 -73.2828 21° North 430 495 21,000  Level Boston Center
09:48AM 41.5894 -73.1700 44° Northeast 414 476 21,000  Level Boston Center
09:49AM 41.7292 -73.1356 10° North 413 475 21,000  Level Boston Center
09:50AM 41.8481 -73.1394 359° North 407 468 21,000  Level Boston Center
09:51AM 41.9689 -73.1436 359° North 419 482 21,000  Level Boston Center
09:52AM 42.0897 -73.1450 360° North 419 482 21,000  Level Boston Center
09:53AM 42.2106 -73.1464 360° North 424 488 21,000  Level Boston Center
09:54AM 42.3294 -73.1478 360° North 424 488 21,000  Level Boston Center
09:55AM 42.4753 -73.1381 North 424 488 21,000  Level Boston Center
09:56AM 42.5942 -73.1394 360° North 424 488 21,000  Level Boston Center
09:57AM 42.7025 -73.1550 354° North 419 482 21,000  Level Boston Center
09:58AM 42.8253 -73.1592 359° North 424 488 21,000  Level Boston Center
09:59AM 42.9442 -73.1606 360° North 424 488 21,000  Level Boston Center
10:00AM 43.0631 -73.1619 360° North 424 488 21,000  Level Boston Center
10:01AM 43.1839 -73.1661 359° North 424 488 21,000  Level Boston Center
10:02AM 43.3025 -73.1647 360° North 424 488 21,000 -300 Level Boston Center
10:03AM 43.4317 -73.1661 360° North 417 480 20,500 -1,080 Descending Boston Center
10:04AM 43.5442 -73.1675 359° North 411 473 18,900 -1,920 Descending Boston Center
10:05AM 43.6528 -73.1431 North 399 459 16,800 -1,980 Descending Boston Center
10:06AM 43.7531 -73.1128 12° North 384 442 15,000 -1,740 Descending Boston Center
10:07AM 43.8531 -73.0964 North 372 428 13,300 -1,740 Descending Boston Center
10:08AM 43.9469 -73.0947 North 351 404 11,600 -1,380 Descending Boston Center
10:09AM 44.0258 -73.1214 346° North 328 377 10,600 -1,080 Descending Boston Center
10:10AM 44.1050 -73.1628 339° North 310 357 9,500 -1,560 Descending Boston Center
10:11AM 44.1817 -73.2014 340° North 294 338 7,500 -1,800 Descending Boston Center
10:12AM 44.2544 -73.2400 339° North 283 326 5,900 -1,560 Descending Boston Center
10:14AM 44.3269 -73.2817 338° Northwest 283 326 4,200 -1,320 Descending Boston Center
10:15AM 44.4203 -73.3411 336° Northwest 283 326 3,100 -600 Descending Boston Center
10:16AM 44.4928 -73.3858 336° Northwest 283 326 3,000 -60 Descending Boston Center
10:17AM 44.5614 -73.4161 343° North 273 314 3,000 -360 Level Boston Center
10:18AM 44.5847 -73.3467 65° Northeast 183 211 2,300 -420 Descending Boston Center
10:19AM 44.5542 -73.2878 126° Southeast 164 189 2,200 -240 Descending Boston Center
10:20AM 44.5336 -73.2525 129° Southeast 164 189 1,900 -600 Descending Boston Center
10:21AM 44.5047 -73.2086 133° Southeast 133 153 1,100 -840 Descending Boston Center